Time;durP1;ratioP1;P1;durP2;ratioP2;P2;SDS_P1;SDS_P2;PMS_P1;PMS_P2;Temp;Humidity;BMP_temperature;BMP_pressure;BME280_temperature;BME280_humidity;BME280_pressure;Samples;Min_cycle;Max_cycle;Signal;HPM_P1;HPM_P2
2021/05/26 00:00:17;;;;;;;10.82;5.35;;;;;;;11.94;71.06;99437.09;5013746;28;20053;-84
2021/05/26 00:02:43;;;;;;;9.88;5.20;;;;;;;11.95;71.02;99428.22;5013962;28;20046;-83
2021/05/26 00:05:11;;;;;;;7.30;5.00;;;;;;;11.94;71.02;99427.38;5012381;28;20065;-84
2021/05/26 00:07:37;;;;;;;8.85;4.53;;;;;;;11.93;70.89;99425.69;5013855;28;20099;-83
2021/05/26 00:10:05;;;;;;;7.00;4.57;;;;;;;11.93;70.82;99427.47;5014236;28;20050;-84
2021/05/26 00:12:32;;;;;;;5.85;4.32;;;;;;;11.91;70.75;99421.44;5014307;28;20058;-84
2021/05/26 00:14:59;;;;;;;6.85;4.75;;;;;;;11.89;70.81;99416.28;5013998;28;20049;-84
2021/05/26 00:17:27;;;;;;;4.85;3.92;;;;;;;11.89;70.86;99412.81;5013889;28;20054;-84
2021/05/26 00:19:55;;;;;;;6.03;4.55;;;;;;;11.87;70.81;99415.56;5013165;28;20060;-84
2021/05/26 00:22:21;;;;;;;7.85;3.97;;;;;;;11.85;70.76;99417.47;5013061;28;20407;-84
2021/05/26 00:24:48;;;;;;;4.63;4.22;;;;;;;11.84;70.98;99410.47;5013548;28;20057;-84
2021/05/26 00:27:20;;;;;;;6.53;4.70;;;;;;;11.80;70.72;99399.31;5012719;28;20053;-84
2021/05/26 00:29:49;;;;;;;5.35;4.10;;;;;;;11.81;71.02;99402.81;5017310;28;20085;-85
2021/05/26 00:32:16;;;;;;;6.95;4.65;;;;;;;11.80;71.02;99396.66;5011554;28;20057;-84
2021/05/26 00:34:42;;;;;;;5.55;4.68;;;;;;;11.79;71.28;99402.03;4996031;28;20089;-85
2021/05/26 00:37:09;;;;;;;7.93;4.38;;;;;;;11.79;70.95;99388.84;4995627;28;20069;-86
2021/05/26 00:39:36;;;;;;;10.63;5.50;;;;;;;11.79;71.16;99397.63;4994453;28;20460;-85
2021/05/26 00:42:03;;;;;;;14.07;5.55;;;;;;;11.78;71.16;99393.28;4995353;28;20050;-86
2021/05/26 00:44:29;;;;;;;7.07;5.40;;;;;;;11.77;71.01;99393.41;4995940;28;20052;-84
2021/05/26 00:46:56;;;;;;;6.07;5.18;;;;;;;11.76;71.02;99389.91;4995016;28;20046;-84
2021/05/26 00:49:22;;;;;;;11.70;5.90;;;;;;;11.75;71.13;99390.88;5002577;28;20057;-84
2021/05/26 00:51:49;;;;;;;9.90;6.75;;;;;;;11.74;71.23;99399.72;5014360;28;20053;-84
2021/05/26 00:54:16;;;;;;;7.18;6.43;;;;;;;11.74;71.30;99389.19;5012880;28;20054;-84
2021/05/26 00:56:42;;;;;;;8.90;6.45;;;;;;;11.75;71.31;99388.22;5012073;28;20049;-84
2021/05/26 00:59:09;;;;;;;7.80;6.07;;;;;;;11.76;71.46;99383.78;5011813;28;20062;-84
2021/05/26 01:01:36;;;;;;;10.00;6.82;;;;;;;11.78;71.49;99381.91;5013398;28;20046;-84
2021/05/26 01:04:03;;;;;;;10.05;6.95;;;;;;;11.78;71.40;99377.44;5013431;28;20073;-84
2021/05/26 01:06:29;;;;;;;8.07;7.25;;;;;;;11.78;71.28;99376.63;5009838;28;20052;-84
2021/05/26 01:08:56;;;;;;;8.25;7.43;;;;;;;11.78;71.34;99374.81;5011742;28;20050;-84
2021/05/26 01:11:23;;;;;;;9.38;8.35;;;;;;;11.78;71.35;99379.28;5013889;28;20057;-84
2021/05/26 01:13:49;;;;;;;10.52;8.10;;;;;;;11.77;71.40;99378.41;5014651;28;20155;-84
2021/05/26 01:16:16;;;;;;;10.55;8.20;;;;;;;11.77;71.41;99374.94;4996266;28;20046;-85
2021/05/26 01:18:43;;;;;;;12.15;9.18;;;;;;;11.77;71.41;99377.59;4994830;28;20523;-85
2021/05/26 01:21:12;;;;;;;10.90;9.02;;;;;;;11.76;71.50;99376.72;4994951;28;20054;-85
2021/05/26 01:23:41;;;;;;;10.40;9.35;;;;;;;11.77;71.54;99372.31;4994699;28;20051;-84
2021/05/26 01:26:08;;;;;;;14.05;10.35;;;;;;;11.78;71.80;99381.91;4994244;28;20054;-86
2021/05/26 01:28:37;;;;;;;11.73;10.38;;;;;;;11.76;71.84;99371.47;4994370;28;20050;-84
2021/05/26 01:31:03;;;;;;;14.77;11.05;;;;;;;11.78;71.70;99372.19;4992674;28;20050;-84
2021/05/26 01:33:31;;;;;;;12.43;11.02;;;;;;;11.79;71.62;99367.75;4992919;28;20112;-84
2021/05/26 01:35:57;;;;;;;12.60;11.20;;;;;;;11.79;71.83;99362.50;4993345;28;20050;-84
2021/05/26 01:38:25;;;;;;;15.90;11.25;;;;;;;11.80;71.69;99367.66;4994996;28;20050;-84
2021/05/26 01:41:00;;;;;;;16.92;11.23;;;;;;;11.77;71.82;99362.59;4994432;28;20058;-83
2021/05/26 01:43:27;;;;;;;12.65;10.65;;;;;;;11.81;71.82;99363.25;4994860;28;20065;-84
2021/05/26 01:45:54;;;;;;;13.02;10.13;;;;;;;11.80;71.63;99364.16;4994315;28;20519;-84
2021/05/26 01:48:21;;;;;;;16.10;9.93;;;;;;;11.80;71.58;99359.75;4993870;28;20053;-84
2021/05/26 01:50:48;;;;;;;11.20;9.13;;;;;;;11.78;71.51;99360.81;4994473;28;20055;-84
2021/05/26 01:53:15;;;;;;;10.13;7.90;;;;;;;11.78;71.52;99363.44;4995382;28;20054;-84
2021/05/26 01:55:41;;;;;;;10.45;8.07;;;;;;;11.75;71.46;99364.50;4994640;28;20058;-84
2021/05/26 01:58:08;;;;;;;9.45;6.00;;;;;;;11.72;71.15;99357.66;4994700;28;20054;-85
2021/05/26 02:00:39;;;;;;;6.40;5.13;;;;;;;11.69;70.79;99352.56;4994974;28;20385;-84
2021/05/26 02:03:06;;;;;;;8.68;4.47;;;;;;;11.67;70.66;99349.19;4999470;28;20088;-84
2021/05/26 02:05:33;;;;;;;6.50;3.72;;;;;;;11.63;70.75;99349.50;5012905;28;20515;-83
2021/05/26 02:08:01;;;;;;;4.78;3.63;;;;;;;11.58;70.44;99352.44;5013538;28;20050;-83
2021/05/26 02:13:15;;;;;;;3.95;2.97;;;;;;;11.48;70.61;99354.88;5020110;28;20049;-86
2021/05/26 02:15:42;;;;;;;6.13;3.45;;;;;;;11.43;70.74;99343.78;5018341;28;20470;-85
2021/05/26 02:18:09;;;;;;;10.95;4.78;;;;;;;11.41;71.07;99345.69;5019363;28;20050;-85
2021/05/26 02:20:36;;;;;;;8.55;5.72;;;;;;;11.38;71.06;99340.63;5002981;28;20220;-85
2021/05/26 02:23:02;;;;;;;9.07;6.15;;;;;;;11.37;71.37;99344.22;4997834;28;20089;-85
2021/05/26 02:25:29;;;;;;;15.40;8.32;;;;;;;11.36;71.42;99338.09;4997970;28;20064;-86
2021/05/26 02:27:56;;;;;;;14.48;8.25;;;;;;;11.37;71.48;99333.69;4997263;28;20125;-84
2021/05/26 02:30:23;;;;;;;14.98;9.43;;;;;;;11.36;71.68;99335.44;4996124;28;20488;-84
2021/05/26 02:32:50;;;;;;;20.33;10.32;;;;;;;11.36;71.75;99324.91;4995860;28;20047;-84
2021/05/26 02:35:17;;;;;;;16.80;10.18;;;;;;;11.37;71.91;99324.00;4994636;28;20419;-84
2021/05/26 02:37:44;;;;;;;13.85;10.65;;;;;;;11.38;71.81;99324.81;5012612;28;20050;-83
2021/05/26 02:40:11;;;;;;;22.50;11.65;;;;;;;11.39;72.09;99326.50;5016283;28;20062;-83
2021/05/26 02:42:38;;;;;;;15.23;10.20;;;;;;;11.40;72.21;99328.19;5015989;28;20050;-84
2021/05/26 02:45:06;;;;;;;15.25;10.68;;;;;;;11.40;72.02;99329.03;5016767;28;20145;-84
2021/05/26 02:47:33;;;;;;;14.55;10.07;;;;;;;11.42;72.06;99323.66;5015916;28;20050;-83
2021/05/26 02:49:59;;;;;;;13.88;9.68;;;;;;;11.43;72.14;99327.97;5015195;28;20058;-84
2021/05/26 02:52:26;;;;;;;17.98;10.25;;;;;;;11.45;72.05;99331.38;5012757;28;20065;-84
2021/05/26 02:54:52;;;;;;;16.70;10.40;;;;;;;11.46;71.98;99331.28;4995378;28;20057;-84
2021/05/26 02:57:20;;;;;;;13.23;9.07;;;;;;;11.49;72.03;99330.22;5012708;28;20042;-84
2021/05/26 02:59:47;;;;;;;17.13;10.02;;;;;;;11.50;72.06;99334.53;5014986;28;20471;-84
2021/05/26 03:02:14;;;;;;;14.63;8.57;;;;;;;11.53;72.08;99328.19;5016108;28;20443;-84
2021/05/26 03:04:41;;;;;;;15.07;9.20;;;;;;;11.54;71.95;99322.81;5016876;28;20065;-86
2021/05/26 03:07:07;;;;;;;16.17;8.88;;;;;;;11.55;71.82;99311.34;5016955;28;20108;-84
2021/05/26 03:09:39;;;;;;;13.43;8.27;;;;;;;11.57;71.81;99309.44;5016878;28;20072;-85
2021/05/26 03:12:06;;;;;;;14.20;8.13;;;;;;;11.56;71.64;99306.91;5016494;28;20510;-86
2021/05/26 03:14:32;;;;;;;15.00;7.40;;;;;;;11.56;71.40;99318.28;5015271;28;20491;-85
2021/05/26 03:16:59;;;;;;;13.45;7.63;;;;;;;11.54;71.42;99320.19;5016651;28;20446;-85
2021/05/26 03:19:25;;;;;;;13.15;7.88;;;;;;;11.52;71.54;99314.19;5015715;28;20065;-86
2021/05/26 03:21:52;;;;;;;14.63;7.78;;;;;;;11.51;71.64;99319.56;5013591;28;20064;-84
2021/05/26 03:24:19;;;;;;;11.52;7.57;;;;;;;11.48;71.48;99315.34;5016691;28;20054;-84
2021/05/26 03:26:45;;;;;;;13.60;7.55;;;;;;;11.46;71.50;99317.22;5015714;28;20050;-83
2021/05/26 03:29:13;;;;;;;14.73;7.13;;;;;;;11.43;71.42;99320.94;5015828;28;20062;-84
2021/05/26 03:31:39;;;;;;;17.25;6.65;;;;;;;11.40;71.37;99315.03;5015837;28;20061;-84
2021/05/26 03:34:06;;;;;;;8.50;5.90;;;;;;;11.38;71.43;99316.91;5016167;28;20045;-83
2021/05/26 03:36:33;;;;;;;11.77;6.70;;;;;;;11.35;71.62;99317.97;5016182;28;20057;-84
2021/05/26 03:38:59;;;;;;;10.65;5.97;;;;;;;11.33;71.50;99312.78;5015215;28;20050;-84
2021/05/26 03:41:26;;;;;;;11.80;6.47;;;;;;;11.32;71.65;99310.25;5014743;28;20057;-83
2021/05/26 03:43:52;;;;;;;12.63;5.75;;;;;;;11.30;71.70;99307.75;5014075;28;20069;-83
2021/05/26 03:46:19;;;;;;;10.23;5.75;;;;;;;11.30;71.65;99312.16;5015856;28;20459;-84
2021/05/26 03:48:46;;;;;;;8.43;5.78;;;;;;;11.30;71.72;99306.91;5014440;28;20054;-84
2021/05/26 03:51:12;;;;;;;11.13;6.07;;;;;;;11.30;71.60;99307.75;5014947;28;20501;-83
2021/05/26 03:53:39;;;;;;;8.07;5.38;;;;;;;11.28;71.54;99312.25;5014192;28;20145;-84
2021/05/26 03:56:05;;;;;;;12.30;5.70;;;;;;;11.28;71.78;99312.25;5015413;28;20061;-84
2021/05/26 03:58:33;;;;;;;14.73;5.47;;;;;;;11.27;71.92;99310.59;5014893;28;20407;-84
2021/05/26 04:00:59;;;;;;;10.63;5.40;;;;;;;11.28;71.72;99316.69;5001625;28;20058;-84
2021/05/26 04:03:26;;;;;;;9.35;4.90;;;;;;;11.27;71.95;99312.34;4994511;28;20091;-84
2021/05/26 04:05:52;;;;;;;8.70;4.68;;;;;;;11.29;71.85;99318.38;4995004;28;20054;-85
2021/05/26 04:08:19;;;;;;;9.57;4.72;;;;;;;11.29;71.79;99311.31;4995185;28;20052;-83
2021/05/26 04:10:46;;;;;;;7.63;4.88;;;;;;;11.30;71.75;99323.56;4994969;28;20055;-84
2021/05/26 04:13:12;;;;;;;9.30;4.97;;;;;;;11.29;71.46;99308.66;4993400;28;20057;-83
2021/05/26 04:15:39;;;;;;;8.55;4.47;;;;;;;11.31;71.67;99313.84;4994793;28;20120;-84
2021/05/26 04:18:07;;;;;;;11.15;5.05;;;;;;;11.30;71.57;99312.16;4995627;28;20058;-84
2021/05/26 04:20:35;;;;;;;8.07;4.70;;;;;;;11.30;71.53;99304.25;4993894;28;20061;-84
2021/05/26 04:23:02;;;;;;;6.63;4.40;;;;;;;11.29;71.47;99302.56;4993920;28;20057;-84
2021/05/26 04:25:29;;;;;;;7.82;4.65;;;;;;;11.28;71.42;99306.13;4995206;28;20093;-84
2021/05/26 04:27:55;;;;;;;7.38;4.20;;;;;;;11.25;71.36;99301.91;4993295;28;20058;-84
2021/05/26 04:30:22;;;;;;;7.22;3.78;;;;;;;11.25;71.24;99307.19;4993699;28;20069;-84
2021/05/26 04:32:49;;;;;;;8.73;4.13;;;;;;;11.23;71.45;99290.66;4994562;28;20050;-84
2021/05/26 04:35:15;;;;;;;8.27;3.90;;;;;;;11.23;71.38;99295.06;4998064;28;20050;-85
2021/05/26 04:37:42;;;;;;;6.65;3.53;;;;;;;11.22;71.46;99296.88;5012266;28;20038;-84
2021/05/26 04:40:09;;;;;;;6.95;3.92;;;;;;;11.21;71.55;99296.03;4974650;28;20050;-85
2021/05/26 04:42:36;;;;;;;6.45;3.58;;;;;;;11.22;71.55;99291.63;5010143;28;20064;-84
2021/05/26 04:45:03;;;;;;;10.98;3.90;;;;;;;11.21;71.48;99290.75;5011343;28;20090;-84
2021/05/26 04:47:30;;;;;;;6.70;3.78;;;;;;;11.22;71.56;99286.34;4994952;28;20061;-85
2021/05/26 04:49:57;;;;;;;9.73;4.15;;;;;;;11.23;71.82;99292.44;4995659;28;20050;-85
2021/05/26 04:52:23;;;;;;;8.73;3.63;;;;;;;11.24;71.72;99296.75;4992925;28;20050;-86
2021/05/26 04:54:50;;;;;;;8.15;3.95;;;;;;;11.25;71.85;99288.75;4994949;28;20105;-83
2021/05/26 04:57:16;;;;;;;7.10;3.97;;;;;;;11.26;71.79;99290.47;4994153;28;20058;-84
2021/05/26 04:59:43;;;;;;;5.38;3.67;;;;;;;11.29;71.96;99294.66;4994864;28;20058;-83
2021/05/26 05:02:09;;;;;;;5.35;4.07;;;;;;;11.31;71.67;99287.50;4995105;28;20054;-85
2021/05/26 05:04:36;;;;;;;8.98;4.28;;;;;;;11.33;71.94;99291.72;4994742;28;20075;-83
2021/05/26 05:07:03;;;;;;;4.90;3.50;;;;;;;11.34;71.84;99288.13;4992334;28;20543;-84
2021/05/26 05:09:29;;;;;;;7.20;4.13;;;;;;;11.36;71.53;99287.19;4992938;28;20511;-85
2021/05/26 05:11:56;;;;;;;9.77;4.32;;;;;;;11.36;71.42;99284.56;4993144;28;20053;-84
2021/05/26 05:14:23;;;;;;;4.68;3.80;;;;;;;11.37;71.43;99292.38;4992919;28;20440;-84
2021/05/26 05:16:49;;;;;;;7.25;4.03;;;;;;;11.38;71.83;99290.56;4993186;28;20058;-84
2021/05/26 05:19:16;;;;;;;7.75;4.25;;;;;;;11.39;71.88;99295.72;4994644;28;20412;-84
2021/05/26 05:21:42;;;;;;;7.78;4.60;;;;;;;11.42;71.91;99289.41;4994967;28;20457;-84
2021/05/26 05:24:09;;;;;;;8.50;4.45;;;;;;;11.44;71.90;99288.34;4995196;28;20060;-85
2021/05/26 05:26:36;;;;;;;10.48;4.97;;;;;;;11.46;71.71;99281.19;5006083;28;20049;-84
2021/05/26 05:29:03;;;;;;;10.05;4.78;;;;;;;11.48;71.71;99286.38;5007760;28;20046;-84
2021/05/26 05:31:31;;;;;;;10.23;4.43;;;;;;;11.50;71.62;99280.97;4994528;28;20069;-84
2021/05/26 05:33:58;;;;;;;7.32;4.40;;;;;;;11.49;71.65;99277.50;4994689;28;20057;-84
2021/05/26 05:36:25;;;;;;;10.90;4.78;;;;;;;11.50;71.59;99281.81;4994654;28;20058;-85
2021/05/26 05:38:51;;;;;;;8.32;4.90;;;;;;;11.51;71.52;99275.59;4994314;28;20055;-84
2021/05/26 05:41:18;;;;;;;11.13;4.82;;;;;;;11.52;71.55;99279.06;4994477;28;20137;-86
2021/05/26 05:43:45;;;;;;;11.05;4.93;;;;;;;11.52;71.44;99274.66;4993780;28;20463;-84
2021/05/26 05:46:12;;;;;;;7.05;4.63;;;;;;;11.51;71.52;99267.69;4998520;28;20054;-84
2021/05/26 05:48:38;;;;;;;10.38;5.13;;;;;;;11.51;71.45;99262.41;4996459;28;20050;-83
2021/05/26 05:51:05;;;;;;;10.23;4.85;;;;;;;11.51;71.53;99274.75;4998194;28;20055;-84
2021/05/26 05:53:32;;;;;;;8.80;4.60;;;;;;;11.50;71.37;99273.91;4997745;28;20082;-84
2021/05/26 05:56:01;;;;;;;7.20;4.30;;;;;;;11.49;71.41;99272.22;5007058;28;20403;-85
2021/05/26 05:58:28;;;;;;;8.52;4.10;;;;;;;11.51;71.43;99270.31;5016339;28;20077;-84
2021/05/26 06:00:55;;;;;;;6.43;3.88;;;;;;;11.49;71.38;99252.94;5017314;28;20057;-84
2021/05/26 06:03:21;;;;;;;7.57;4.40;;;;;;;11.46;71.44;99243.44;5017638;28;20149;-85
2021/05/26 06:05:48;;;;;;;8.00;4.38;;;;;;;11.42;71.05;99249.88;5016122;28;20450;-85
2021/05/26 06:08:15;;;;;;;5.60;3.60;;;;;;;11.39;71.09;99248.28;5015743;28;20049;-84
2021/05/26 06:10:41;;;;;;;6.22;4.20;;;;;;;11.37;71.47;99249.34;5016358;28;20062;-84
2021/05/26 06:13:09;;;;;;;6.78;3.97;;;;;;;11.34;71.60;99237.22;5017199;28;20050;-85
2021/05/26 06:15:35;;;;;;;5.90;4.72;;;;;;;11.34;71.98;99240.69;5016123;28;20053;-84
2021/05/26 06:18:03;;;;;;;5.47;4.43;;;;;;;11.34;72.35;99253.88;5015382;28;20057;-84
2021/05/26 06:20:30;;;;;;;5.93;4.40;;;;;;;11.38;72.54;99245.75;5013980;28;20049;-84
2021/05/26 06:22:57;;;;;;;4.90;4.05;;;;;;;11.43;72.80;99248.91;5014309;28;20061;-84
2021/05/26 06:25:23;;;;;;;7.32;4.65;;;;;;;11.45;72.91;99244.41;5015374;28;20049;-86
2021/05/26 06:27:50;;;;;;;5.75;4.28;;;;;;;11.50;72.94;99247.56;5016704;28;20167;-85
2021/05/26 06:30:17;;;;;;;5.25;4.13;;;;;;;11.56;73.36;99247.13;5015783;28;20119;-86
2021/05/26 06:32:43;;;;;;;7.43;4.65;;;;;;;11.64;73.67;99246.59;5015980;28;20100;-84
2021/05/26 06:35:11;;;;;;;6.25;4.47;;;;;;;11.72;73.41;99240.78;5013995;28;20204;-84
2021/05/26 06:37:37;;;;;;;6.65;4.55;;;;;;;11.83;73.78;99238.25;5014014;28;20046;-85
2021/05/26 06:40:05;;;;;;;7.07;5.05;;;;;;;11.94;73.69;99241.91;5013623;28;20064;-84
2021/05/26 06:42:32;;;;;;;5.60;5.00;;;;;;;12.04;73.29;99239.47;5015259;28;20061;-84
2021/05/26 06:44:59;;;;;;;8.63;6.03;;;;;;;12.12;72.90;99239.78;5013265;28;20050;-84
2021/05/26 06:47:27;;;;;;;10.05;6.05;;;;;;;12.18;72.30;99247.25;5015224;28;20447;-84
2021/05/26 06:49:54;;;;;;;10.05;6.32;;;;;;;12.20;72.13;99252.41;5013743;28;20054;-84
2021/05/26 06:52:20;;;;;;;13.20;6.47;;;;;;;12.22;71.96;99237.31;5016602;28;20046;-84
2021/05/26 06:54:47;;;;;;;11.98;7.50;;;;;;;12.22;71.89;99245.22;5016042;28;20057;-84
2021/05/26 06:57:14;;;;;;;11.02;7.97;;;;;;;12.21;71.58;99248.81;5002488;28;20070;-84
2021/05/26 06:59:40;;;;;;;14.57;8.35;;;;;;;12.20;71.44;99248.00;4997556;28;20053;-84
2021/05/26 07:02:07;;;;;;;18.30;8.60;;;;;;;12.19;71.57;99240.19;4995143;28;20053;-84
2021/05/26 07:04:34;;;;;;;18.17;9.35;;;;;;;12.18;71.63;99254.34;4996454;28;20530;-85
2021/05/26 07:07:00;;;;;;;16.40;8.70;;;;;;;12.16;71.64;99245.66;5008546;28;20053;-85
2021/05/26 07:09:27;;;;;;;15.77;8.77;;;;;;;12.16;71.70;99243.03;5014250;28;20049;-84
2021/05/26 07:11:53;;;;;;;18.40;9.20;;;;;;;12.16;71.90;99243.03;5015949;28;20054;-86
2021/05/26 07:14:25;;;;;;;18.77;8.52;;;;;;;12.18;71.94;99243.78;5015762;28;20569;-86
2021/05/26 07:16:52;;;;;;;12.52;8.32;;;;;;;12.19;71.79;99248.91;5003144;28;20057;-86
2021/05/26 07:19:19;;;;;;;16.65;9.10;;;;;;;12.21;71.83;99248.81;4997562;28;20496;-86
2021/05/26 07:21:46;;;;;;;17.67;8.80;;;;;;;12.22;71.92;99247.84;4996573;28;20054;-84
2021/05/26 07:24:12;;;;;;;16.70;8.90;;;;;;;12.25;72.10;99245.84;4996196;28;20054;-84
2021/05/26 07:26:39;;;;;;;18.98;9.20;;;;;;;12.29;72.25;99243.81;5006237;28;20098;-84
2021/05/26 07:29:06;;;;;;;16.90;8.45;;;;;;;12.33;72.11;99232.09;5016835;28;20120;-84
2021/05/26 07:31:32;;;;;;;23.73;9.65;;;;;;;12.40;72.24;99242.22;5014974;28;20050;-83
2021/05/26 07:33:59;;;;;;;17.27;9.10;;;;;;;12.44;72.25;99241.88;5016180;28;20049;-83
2021/05/26 07:36:26;;;;;;;17.05;9.50;;;;;;;12.50;72.33;99243.22;5014806;28;20105;-84
2021/05/26 07:38:53;;;;;;;14.98;8.82;;;;;;;12.55;72.20;99242.88;5014511;28;20530;-84
2021/05/26 07:41:19;;;;;;;13.07;8.13;;;;;;;12.60;71.96;99243.41;5015646;28;20058;-85
2021/05/26 07:43:46;;;;;;;13.20;7.70;;;;;;;12.63;71.51;99243.16;5013970;28;20057;-84
2021/05/26 07:46:13;;;;;;;16.65;8.45;;;;;;;12.66;71.55;99242.94;4996508;28;20062;-84
2021/05/26 07:48:40;;;;;;;14.88;7.97;;;;;;;12.70;71.47;99240.88;4996132;28;20527;-84
2021/05/26 07:51:07;;;;;;;18.75;9.27;;;;;;;12.71;71.29;99239.97;4996754;28;20427;-85
2021/05/26 07:53:33;;;;;;;22.95;8.05;;;;;;;12.72;71.15;99249.56;4996108;28;20052;-84
2021/05/26 07:56:00;;;;;;;15.55;7.70;;;;;;;12.75;71.36;99241.41;4996565;28;20104;-84
2021/05/26 07:58:27;;;;;;;11.70;6.60;;;;;;;12.76;71.13;99243.91;4997680;28;20050;-84
2021/05/26 08:00:54;;;;;;;13.30;6.68;;;;;;;12.80;71.59;99241.91;4997009;28;20054;-84
2021/05/26 08:03:21;;;;;;;13.95;6.97;;;;;;;12.85;71.63;99246.81;4995776;28;20050;-85
2021/05/26 08:05:47;;;;;;;10.93;6.50;;;;;;;12.90;71.96;99250.00;5009296;28;20061;-85
2021/05/26 08:08:14;;;;;;;12.40;6.43;;;;;;;12.97;72.06;99245.91;5014620;28;20054;-84
2021/05/26 08:10:42;;;;;;;15.45;7.13;;;;;;;13.05;71.67;99245.34;5013693;28;20065;-84
2021/05/26 08:13:09;;;;;;;16.52;7.35;;;;;;;13.14;71.63;99244.66;5015121;28;20057;-84
2021/05/26 08:15:37;;;;;;;9.95;6.38;;;;;;;13.22;71.61;99245.84;5013911;28;20136;-84
2021/05/26 08:18:09;;;;;;;13.23;6.43;;;;;;;13.31;71.69;99242.53;5014501;28;20492;-84
2021/05/26 08:20:36;;;;;;;11.93;7.15;;;;;;;13.39;71.56;99226.06;5013206;28;20060;-83
2021/05/26 08:23:02;;;;;;;9.32;6.07;;;;;;;13.48;71.35;99233.31;5014737;28;20050;-84
2021/05/26 08:25:29;;;;;;;9.13;6.18;;;;;;;13.59;72.12;99234.25;5004525;28;20515;-84
2021/05/26 08:27:56;;;;;;;12.32;6.53;;;;;;;13.69;71.70;99235.25;4997072;28;20118;-84
2021/05/26 08:30:22;;;;;;;16.73;7.25;;;;;;;13.80;71.00;99237.03;4997347;28;20054;-84
2021/05/26 08:32:49;;;;;;;15.10;6.82;;;;;;;13.89;70.84;99227.50;4996062;28;20062;-84
2021/05/26 08:35:16;;;;;;;14.85;6.85;;;;;;;14.00;70.85;99216.06;5004932;28;20060;-84
2021/05/26 08:37:43;;;;;;;12.55;6.80;;;;;;;14.07;70.86;99217.28;5017246;28;20081;-85
2021/05/26 08:40:10;;;;;;;11.23;6.35;;;;;;;14.17;69.79;99223.50;5013356;28;20053;-84
2021/05/26 08:42:37;;;;;;;9.40;5.82;;;;;;;14.23;69.39;99230.09;5013734;28;20046;-84
2021/05/26 08:45:06;;;;;;;9.32;5.43;;;;;;;14.25;69.49;99214.09;5014314;28;20050;-84
2021/05/26 08:47:34;;;;;;;10.65;5.95;;;;;;;14.27;69.06;99217.44;5014348;28;20120;-85
2021/05/26 08:50:03;;;;;;;9.63;6.00;;;;;;;14.30;69.14;99211.91;5015599;28;20392;-85
2021/05/26 08:52:30;;;;;;;8.52;5.45;;;;;;;14.35;69.26;99215.00;5013102;28;20046;-86
2021/05/26 08:54:58;;;;;;;9.73;5.22;;;;;;;14.40;68.91;99212.00;4994635;28;20050;-86
2021/05/26 08:57:24;;;;;;;10.02;5.28;;;;;;;14.43;67.80;99228.47;4995059;28;20050;-87
2021/05/26 08:59:51;;;;;;;8.07;5.18;;;;;;;14.53;69.00;99202.06;4995594;28;20526;-84
2021/05/26 09:02:18;;;;;;;9.40;4.63;;;;;;;14.61;68.73;99198.78;4993888;28;20508;-84
2021/05/26 09:04:44;;;;;;;6.40;4.07;;;;;;;14.71;68.56;99190.91;4994826;28;20087;-84
2021/05/26 09:07:14;;;;;;;10.38;4.60;;;;;;;14.83;68.27;99199.66;4994207;28;20069;-84
2021/05/26 09:09:50;;;;;;;9.52;4.72;;;;;;;14.94;67.10;99196.13;4993383;28;20057;-84
2021/05/26 09:12:27;;;;;;;11.27;3.63;;;;;;;15.02;66.38;99191.00;4994176;28;20054;-84
2021/05/26 09:14:55;;;;;;;5.75;3.13;;;;;;;15.15;67.77;99184.66;4993600;28;20101;-84
2021/05/26 09:17:21;;;;;;;6.88;3.20;;;;;;;15.21;67.65;99189.44;4994187;28;20061;-84
2021/05/26 09:19:48;;;;;;;4.70;2.88;;;;;;;15.26;66.96;99186.41;4998080;28;20054;-84
2021/05/26 09:22:18;;;;;;;5.95;2.55;;;;;;;15.29;66.68;99178.19;4997807;28;20058;-84
2021/05/26 09:24:44;;;;;;;7.30;3.13;;;;;;;15.32;66.17;99180.56;4998014;28;20050;-85
2021/05/26 09:27:12;;;;;;;5.13;2.80;;;;;;;15.31;65.70;99182.38;4997898;28;20081;-84
2021/05/26 09:29:47;;;;;;;4.30;2.55;;;;;;;15.30;64.96;99185.16;4997101;28;20050;-85
2021/05/26 09:32:22;;;;;;;7.82;3.10;;;;;;;15.26;63.86;99181.94;4998095;28;20082;-85
2021/05/26 09:34:50;;;;;;;8.13;2.50;;;;;;;15.26;64.90;99181.09;5014839;28;20057;-84
2021/05/26 09:37:26;;;;;;;6.22;2.47;;;;;;;15.24;65.46;99175.91;5017834;28;20064;-84
2021/05/26 09:39:57;;;;;;;7.13;2.45;;;;;;;15.21;64.68;99166.41;5017246;28;20128;-85
2021/05/26 09:42:34;;;;;;;6.65;2.50;;;;;;;15.21;65.30;99160.28;5017300;28;20056;-85
2021/05/26 09:45:13;;;;;;;3.78;2.53;;;;;;;15.18;64.38;99174.63;5000414;28;20054;-85
2021/05/26 09:47:41;;;;;;;3.70;2.08;;;;;;;15.17;64.73;99172.97;4998343;28;20058;-84
2021/05/26 09:50:21;;;;;;;5.72;2.38;;;;;;;15.11;64.58;99169.00;4997606;28;20141;-85
2021/05/26 09:52:53;;;;;;;4.28;2.65;;;;;;;15.11;64.25;99168.19;4998307;28;20046;-84
2021/05/26 09:55:42;;;;;;;4.63;2.33;;;;;;;15.13;65.41;99165.41;5017499;28;20050;-85
2021/05/26 09:58:15;;;;;;;3.80;2.28;;;;;;;15.14;65.51;99165.25;4997417;28;20050;-84
2021/05/26 10:00:44;;;;;;;5.18;2.58;;;;;;;15.21;66.50;99169.06;4997728;28;20054;-84
2021/05/26 10:03:11;;;;;;;3.78;2.20;;;;;;;15.29;66.74;99173.72;4996992;28;20062;-86
2021/05/26 10:05:38;;;;;;;5.10;2.30;;;;;;;15.37;66.66;99167.75;4997218;28;20411;-85
2021/05/26 10:08:12;;;;;;;5.18;2.30;;;;;;;15.46;66.34;99160.78;4997318;28;20062;-84
2021/05/26 10:10:41;;;;;;;4.57;2.20;;;;;;;15.55;65.74;99167.94;4997430;28;20488;-86
2021/05/26 10:13:11;;;;;;;5.43;2.20;;;;;;;15.67;64.77;99167.84;4996925;28;20562;-84
2021/05/26 10:15:39;;;;;;;6.50;2.30;;;;;;;15.81;66.52;99158.69;4997628;28;20059;-84
2021/05/26 10:18:06;;;;;;;4.80;2.17;;;;;;;15.99;66.73;99154.41;4997759;28;20054;-85
2021/05/26 10:20:37;;;;;;;5.63;2.42;;;;;;;16.17;64.28;99153.72;4997104;28;20061;-85
2021/05/26 10:23:06;;;;;;;8.98;2.92;;;;;;;16.32;63.79;99146.19;4996580;28;20050;-84
2021/05/26 10:25:33;;;;;;;3.67;2.50;;;;;;;16.44;62.95;99154.84;4996856;28;20061;-84
2021/05/26 10:28:01;;;;;;;6.70;2.40;;;;;;;16.48;62.49;99153.59;4997349;28;20046;-85
2021/05/26 10:30:45;;;;;;;5.30;2.13;;;;;;;16.49;61.70;99147.28;4996715;28;20053;-86
2021/05/26 10:33:12;;;;;;;4.22;1.92;;;;;;;16.51;62.83;99160.44;4996284;28;20116;-84
2021/05/26 10:35:57;;;;;;;4.20;2.45;;;;;;;16.48;59.72;99163.38;4995759;28;20058;-85
2021/05/26 10:38:24;;;;;;;5.55;2.92;;;;;;;16.52;61.93;99152.31;4996267;28;20058;-85
2021/05/26 10:40:52;;;;;;;4.38;2.42;;;;;;;16.56;62.64;99158.19;4996229;28;20058;-84
2021/05/26 10:43:20;;;;;;;4.47;3.17;;;;;;;16.61;63.00;99155.97;4995747;28;20050;-85
2021/05/26 10:45:49;;;;;;;6.97;2.40;;;;;;;16.68;62.22;99150.91;4996311;28;20046;-86
2021/05/26 10:48:41;;;;;;;6.15;1.98;;;;;;;16.71;59.23;99147.94;5004118;28;20046;-85
2021/05/26 10:51:08;;;;;;;4.53;2.00;;;;;;;16.82;61.20;99154.09;5014370;28;20057;-85
2021/05/26 10:53:38;;;;;;;5.55;2.25;;;;;;;16.82;58.91;99146.13;5014672;28;20060;-85
2021/05/26 10:56:04;;;;;;;3.33;1.88;;;;;;;16.83;60.61;99153.97;5015681;28;20495;-85
2021/05/26 10:58:43;;;;;;;3.47;2.05;;;;;;;16.77;59.00;99143.88;5016465;28;20054;-84
2021/05/26 11:01:12;;;;;;;4.25;2.13;;;;;;;16.88;61.67;99150.88;5016091;28;20165;-85
2021/05/26 11:03:42;;;;;;;5.38;2.28;;;;;;;17.00;62.44;99141.75;5014147;28;20458;-84
2021/05/26 11:06:13;;;;;;;4.05;2.20;;;;;;;17.16;61.62;99148.31;5010320;28;20620;-84
2021/05/26 11:11:18;;;;;;;4.75;1.95;;;;;;;17.19;57.79;99148.00;5013942;28;20062;-84
2021/05/26 11:14:03;;;;;;;4.72;2.00;;;;;;;17.13;57.17;99145.94;5014111;28;20054;-84
2021/05/26 11:16:51;;;;;;;4.85;2.35;;;;;;;17.08;59.62;99140.22;5000008;28;20116;-84
2021/05/26 11:19:26;;;;;;;4.10;2.40;;;;;;;17.15;59.25;99139.47;4994438;28;20051;-85
2021/05/26 11:22:01;;;;;;;5.13;2.25;;;;;;;17.26;59.05;99142.94;4993460;28;20050;-85
2021/05/26 11:24:38;;;;;;;5.38;2.38;;;;;;;17.39;58.59;99140.81;4995983;28;20050;-85
2021/05/26 11:27:27;;;;;;;4.85;2.47;;;;;;;17.54;59.03;99138.47;4975800;28;20058;-85
2021/05/26 11:29:57;;;;;;;5.90;2.20;;;;;;;17.61;57.53;99140.53;4976569;28;20074;-85
2021/05/26 11:32:26;;;;;;;6.40;2.50;;;;;;;17.75;59.67;99137.38;4976260;28;20058;-85
2021/05/26 11:34:55;;;;;;;4.20;2.28;;;;;;;18.03;62.03;99140.00;4974716;28;20069;-85
2021/05/26 11:37:32;;;;;;;5.22;2.55;;;;;;;18.44;59.75;99133.41;5014340;28;20054;-85